Time;durP1;ratioP1;P1;durP2;ratioP2;P2;SDS_P1;SDS_P2;PMS_P1;PMS_P2;Temp;Humidity;BMP_temperature;BMP_pressure;BME280_temperature;BME280_humidity;BME280_pressure;Samples;Min_cycle;Max_cycle;Signal;HPM_P1;HPM_P2
2022/10/09 00:00:38;;;;;;;11.88;6.28;;;;;;;4.93;100.00;102536.66;5013955;28;20413;-72
2022/10/09 00:03:04;;;;;;;18.58;6.38;;;;;;;4.98;100.00;102547.16;5015218;28;20032;-73
2022/10/09 00:05:29;;;;;;;9.82;6.28;;;;;;;4.93;100.00;102548.72;5015070;28;20030;-73
2022/10/09 00:07:54;;;;;;;13.07;6.30;;;;;;;4.91;100.00;102551.28;5014716;28;20018;-72
2022/10/09 00:10:20;;;;;;;15.43;6.60;;;;;;;4.92;100.00;102549.56;5015253;28;20030;-73
2022/10/09 00:12:46;;;;;;;14.70;7.05;;;;;;;4.87;100.00;102556.31;5014514;28;20513;-72
2022/10/09 00:15:11;;;;;;;13.95;6.70;;;;;;;4.84;100.00;102551.06;5014016;28;20022;-73
2022/10/09 00:17:37;;;;;;;12.55;6.78;;;;;;;4.85;100.00;102550.25;5013422;28;20191;-73
2022/10/09 00:20:02;;;;;;;13.85;6.82;;;;;;;4.86;100.00;102551.97;5014763;28;20096;-72
2022/10/09 00:22:28;;;;;;;14.48;6.55;;;;;;;4.80;100.00;102547.50;5013733;28;20057;-73
2022/10/09 00:24:53;;;;;;;16.58;7.20;;;;;;;4.79;100.00;102544.91;5015137;28;20029;-73
2022/10/09 00:27:21;;;;;;;17.55;6.95;;;;;;;4.80;100.00;102551.81;5014470;28;20534;-73
2022/10/09 00:29:46;;;;;;;13.77;7.03;;;;;;;4.73;100.00;102544.72;5013230;28;20037;-73
2022/10/09 00:32:12;;;;;;;11.07;6.70;;;;;;;4.65;100.00;102536.78;5018092;28;20022;-73
2022/10/09 00:34:37;;;;;;;13.55;7.10;;;;;;;4.57;100.00;102522.75;5011413;28;20113;-73
2022/10/09 00:37:02;;;;;;;14.85;7.50;;;;;;;4.66;100.00;102539.38;5013264;28;20032;-72
2022/10/09 00:39:28;;;;;;;13.05;6.82;;;;;;;4.71;100.00;102549.88;5012884;28;20076;-73
2022/10/09 00:41:53;;;;;;;15.00;7.45;;;;;;;4.61;100.00;102540.06;5017144;28;20088;-73
2022/10/09 00:44:47;;;;;;;10.70;6.35;;;;;;;4.66;100.00;102551.44;5014013;28;20048;-73
2022/10/09 00:47:39;;;;;;;10.57;6.82;;;;;;;4.64;100.00;102550.50;5013768;28;20065;-72
2022/10/09 00:50:32;;;;;;;12.70;6.82;;;;;;;4.63;100.00;102546.19;5004785;28;20036;-73
2022/10/09 00:52:59;;;;;;;12.32;6.95;;;;;;;4.56;100.00;102552.00;5012986;28;20113;-72
2022/10/09 00:55:27;;;;;;;14.52;6.75;;;;;;;4.52;100.00;102550.19;5014123;28;20014;-72
2022/10/09 00:57:54;;;;;;;15.45;7.20;;;;;;;4.51;100.00;102545.81;5013476;28;20034;-72
2022/10/09 01:00:20;;;;;;;14.25;7.40;;;;;;;4.53;100.00;102546.75;5014225;28;20018;-73
2022/10/09 01:02:46;;;;;;;12.07;6.85;;;;;;;4.53;100.00;102539.88;5012785;28;20033;-72
2022/10/09 01:05:12;;;;;;;15.68;7.38;;;;;;;4.53;100.00;102547.63;5014072;28;20108;-72
2022/10/09 01:07:46;;;;;;;13.43;7.35;;;;;;;4.50;100.00;102536.34;5013936;28;20142;-73
2022/10/09 01:10:45;;;;;;;14.60;7.28;;;;;;;4.44;100.00;102545.63;5013454;28;20022;-72
2022/10/09 01:13:22;;;;;;;13.63;7.45;;;;;;;4.38;100.00;102547.16;5014269;28;20092;-72
2022/10/09 01:15:53;;;;;;;15.05;7.53;;;;;;;4.39;100.00;102547.22;5014035;28;20034;-72
2022/10/09 01:18:31;;;;;;;12.80;7.70;;;;;;;4.38;100.00;102542.91;5013100;28;20026;-73
2022/10/09 01:21:15;;;;;;;12.77;7.32;;;;;;;4.39;100.00;102546.34;5013294;28;20030;-72
2022/10/09 01:24:07;;;;;;;12.20;6.72;;;;;;;4.31;100.00;102534.91;5013102;28;20049;-73
2022/10/09 01:26:44;;;;;;;12.40;6.75;;;;;;;4.29;100.00;102552.97;5013510;28;20382;-72
2022/10/09 01:29:11;;;;;;;9.65;7.47;;;;;;;4.25;100.00;102543.38;5013637;28;20542;-72
2022/10/09 01:31:43;;;;;;;13.88;7.47;;;;;;;4.24;100.00;102544.19;5012467;28;20029;-72
2022/10/09 01:34:12;;;;;;;15.23;7.73;;;;;;;4.18;100.00;102541.41;5013682;28;20072;-72
2022/10/09 01:36:38;;;;;;;10.32;6.68;;;;;;;4.17;100.00;102542.25;5012005;28;20038;-73
2022/10/09 01:39:07;;;;;;;13.10;6.82;;;;;;;4.14;100.00;102532.72;5012943;28;20025;-72
2022/10/09 01:41:33;;;;;;;14.02;7.22;;;;;;;4.15;100.00;102521.56;5011534;28;20033;-72
2022/10/09 01:43:58;;;;;;;14.73;7.68;;;;;;;4.05;100.00;102510.91;5000701;28;20034;-72
2022/10/09 01:46:27;;;;;;;13.35;7.20;;;;;;;4.04;100.00;102520.38;5010797;28;20033;-72
2022/10/09 01:49:07;;;;;;;13.02;7.93;;;;;;;4.07;100.00;102529.91;5012452;28;20026;-72
2022/10/09 01:51:44;;;;;;;13.38;7.28;;;;;;;4.03;100.00;102523.78;5012795;28;20107;-72
2022/10/09 01:54:13;;;;;;;17.02;7.90;;;;;;;3.94;100.00;102514.03;5014613;28;20120;-72
2022/10/09 01:56:40;;;;;;;14.23;7.28;;;;;;;3.95;100.00;102520.94;5012792;28;20030;-72
2022/10/09 01:59:14;;;;;;;11.05;7.50;;;;;;;3.94;100.00;102518.34;5012486;28;20061;-72
2022/10/09 02:01:41;;;;;;;12.85;7.80;;;;;;;3.90;100.00;102495.84;4999072;28;20053;-72
2022/10/09 02:04:11;;;;;;;12.77;8.18;;;;;;;3.87;100.00;102503.50;5012701;28;20508;-72
2022/10/09 02:06:39;;;;;;;11.85;7.22;;;;;;;3.86;100.00;102502.63;5011544;28;20386;-73
2022/10/09 02:09:08;;;;;;;11.93;7.75;;;;;;;3.83;100.00;102486.19;5012489;28;20021;-73
2022/10/09 02:11:35;;;;;;;12.32;7.20;;;;;;;3.79;100.00;102487.75;4999393;28;20038;-72
2022/10/09 02:14:01;;;;;;;13.75;8.48;;;;;;;3.83;100.00;102488.75;5011382;28;20033;-72
2022/10/09 02:16:38;;;;;;;15.25;8.48;;;;;;;3.75;100.00;102491.97;5011270;28;20022;-72
2022/10/09 02:19:24;;;;;;;14.18;8.23;;;;;;;3.74;100.00;102492.78;5012033;28;20088;-72
2022/10/09 02:21:55;;;;;;;14.95;8.52;;;;;;;3.77;100.00;102497.19;5010796;28;20486;-72
2022/10/09 02:24:22;;;;;;;12.27;7.65;;;;;;;3.71;100.00;102487.53;5010458;28;20065;-72
2022/10/09 02:26:48;;;;;;;13.82;8.52;;;;;;;3.73;100.00;102493.63;5012767;28;20057;-73
2022/10/09 02:29:14;;;;;;;16.90;9.70;;;;;;;3.70;100.00;102490.09;5010927;28;20703;-72
2022/10/09 02:31:41;;;;;;;13.80;9.10;;;;;;;3.68;100.00;102487.44;5011773;28;20034;-72
2022/10/09 02:34:11;;;;;;;12.60;8.35;;;;;;;3.71;100.00;102490.13;5010992;28;20080;-73
2022/10/09 02:36:37;;;;;;;19.42;10.68;;;;;;;3.69;100.00;102490.91;5011444;28;20026;-72
2022/10/09 02:39:04;;;;;;;20.13;9.18;;;;;;;3.63;100.00;102488.13;5011819;28;20470;-72
2022/10/09 02:41:29;;;;;;;12.50;8.88;;;;;;;3.66;100.00;102490.78;5011266;28;20057;-72
2022/10/09 02:43:55;;;;;;;20.45;8.90;;;;;;;3.66;100.00;102489.13;5011882;28;20447;-72
2022/10/09 02:46:21;;;;;;;14.73;9.32;;;;;;;3.65;100.00;102489.94;5010121;28;20561;-73
2022/10/09 02:48:46;;;;;;;14.25;9.27;;;;;;;3.58;100.00;102487.13;5011129;28;20072;-73
2022/10/09 02:51:12;;;;;;;15.95;9.07;;;;;;;3.61;100.00;102487.22;5011631;28;20025;-72
2022/10/09 02:53:37;;;;;;;19.67;9.45;;;;;;;3.61;100.00;102488.09;5014601;28;20559;-72
2022/10/09 02:56:03;;;;;;;13.52;9.40;;;;;;;3.56;100.00;102488.75;5011544;28;20029;-72
2022/10/09 02:58:30;;;;;;;13.60;9.23;;;;;;;3.58;100.00;102487.13;5010033;28;20029;-72
2022/10/09 03:00:55;;;;;;;16.98;9.65;;;;;;;3.52;100.00;102478.34;5005744;28;20405;-72
2022/10/09 03:03:21;;;;;;;17.17;10.18;;;;;;;3.56;100.00;102483.59;5013899;28;20030;-73
2022/10/09 03:05:46;;;;;;;15.57;8.95;;;;;;;3.55;100.00;102475.00;5010437;28;20486;-73
2022/10/09 03:08:12;;;;;;;13.57;9.27;;;;;;;3.51;100.00;102471.44;5012260;28;20017;-72
2022/10/09 03:10:39;;;;;;;17.90;9.35;;;;;;;3.59;100.00;102478.53;5010339;28;20085;-72
2022/10/09 03:13:05;;;;;;;17.92;10.27;;;;;;;3.56;100.00;102481.03;5009658;28;20033;-72
2022/10/09 03:15:34;;;;;;;14.93;9.55;;;;;;;3.54;100.00;102472.38;5010867;28;20022;-72
2022/10/09 03:18:01;;;;;;;20.13;9.70;;;;;;;3.52;100.00;102472.31;5011000;28;20057;-72
2022/10/09 03:20:28;;;;;;;19.08;10.02;;;;;;;3.52;100.00;102486.09;5010368;28;20088;-72
2022/10/09 03:22:55;;;;;;;15.30;9.25;;;;;;;3.51;100.00;102483.47;5011368;28;20034;-72
2022/10/09 03:25:20;;;;;;;16.33;9.93;;;;;;;3.47;100.00;102464.44;5006292;28;20034;-72
2022/10/09 03:27:46;;;;;;;13.70;9.45;;;;;;;3.49;100.00;102467.06;5011823;28;20113;-72
2022/10/09 03:30:12;;;;;;;18.38;9.95;;;;;;;3.47;100.00;102467.03;5010058;28;20028;-72
2022/10/09 03:32:37;;;;;;;18.67;10.35;;;;;;;3.47;100.00;102466.16;5009769;28;20620;-73
2022/10/09 03:35:02;;;;;;;16.60;10.00;;;;;;;3.47;100.00;102471.31;5009457;28;20049;-73
2022/10/09 03:37:27;;;;;;;19.50;10.77;;;;;;;3.44;100.00;102458.31;5009920;28;20080;-72
2022/10/09 03:39:53;;;;;;;22.02;10.90;;;;;;;3.44;100.00;102464.34;5011603;28;20032;-72
2022/10/09 03:42:18;;;;;;;18.30;10.05;;;;;;;3.39;100.00;102455.56;5010479;28;20033;-73
2022/10/09 03:44:44;;;;;;;14.25;10.18;;;;;;;3.42;100.00;102466.00;5009292;28;20030;-72
2022/10/09 03:47:09;;;;;;;17.50;10.20;;;;;;;3.32;100.00;102445.91;5016471;28;20038;-72
2022/10/09 03:49:34;;;;;;;19.58;10.73;;;;;;;3.38;100.00;102461.56;5010305;28;20529;-73
2022/10/09 03:51:59;;;;;;;18.38;9.85;;;;;;;3.37;100.00;102466.66;5010456;28;20129;-73
2022/10/09 03:54:25;;;;;;;15.00;10.05;;;;;;;3.31;100.00;102451.91;5010583;28;20021;-73
2022/10/09 03:56:50;;;;;;;24.08;9.50;;;;;;;3.31;100.00;102464.78;5009877;28;20034;-73
2022/10/09 03:59:16;;;;;;;16.98;10.38;;;;;;;3.32;100.00;102465.66;5009246;28;20505;-72
2022/10/09 04:01:41;;;;;;;15.43;10.55;;;;;;;3.28;100.00;102475.00;5012582;28;20064;-73
2022/10/09 04:04:06;;;;;;;20.52;10.68;;;;;;;3.26;100.00;102479.22;5008864;28;20033;-72
2022/10/09 04:06:31;;;;;;;21.13;9.88;;;;;;;3.23;100.00;102485.13;5008349;28;20034;-72
2022/10/09 04:08:57;;;;;;;16.95;11.05;;;;;;;3.15;100.00;102480.56;5013143;28;20355;-73
2022/10/09 04:11:22;;;;;;;14.05;10.45;;;;;;;3.19;100.00;102483.28;5010631;28;20048;-72
2022/10/09 04:13:47;;;;;;;15.75;9.77;;;;;;;3.14;100.00;102474.56;5013022;28;20045;-73
2022/10/09 04:16:13;;;;;;;16.13;10.65;;;;;;;3.14;100.00;102477.13;5013886;28;20054;-72
2022/10/09 04:18:39;;;;;;;13.45;9.48;;;;;;;3.11;100.00;102477.03;5014427;28;20061;-72
2022/10/09 04:21:04;;;;;;;16.48;9.63;;;;;;;3.10;100.00;102475.25;5013800;28;20022;-72
2022/10/09 04:23:30;;;;;;;15.82;8.98;;;;;;;3.07;100.00;102470.00;5013866;28;20614;-72
2022/10/09 04:25:58;;;;;;;14.80;9.07;;;;;;;2.99;100.00;102458.56;5014337;28;20036;-73
2022/10/09 04:28:27;;;;;;;20.17;9.98;;;;;;;3.01;100.00;102470.69;5013802;28;20032;-72
2022/10/09 04:30:53;;;;;;;18.20;10.57;;;;;;;2.99;100.00;102474.91;5013656;28;20030;-72
2022/10/09 04:33:18;;;;;;;19.05;11.70;;;;;;;2.92;100.00;102462.63;5013249;28;20065;-72
2022/10/09 04:35:45;;;;;;;18.10;10.80;;;;;;;2.94;100.00;102463.59;5009843;28;20180;-72
2022/10/09 04:38:10;;;;;;;13.43;9.45;;;;;;;2.93;100.00;102461.81;5014962;28;20034;-72
2022/10/09 04:40:36;;;;;;;16.65;9.93;;;;;;;2.90;100.00;102459.13;5014124;28;20021;-72
2022/10/09 04:43:01;;;;;;;15.13;9.20;;;;;;;2.89;100.00;102465.13;5013559;28;20230;-72
2022/10/09 04:45:27;;;;;;;16.02;9.20;;;;;;;2.85;100.00;102463.25;5013189;28;20026;-72
2022/10/09 04:47:52;;;;;;;19.05;9.98;;;;;;;2.85;100.00;102460.69;5013811;28;20072;-72
2022/10/09 04:50:17;;;;;;;17.08;10.43;;;;;;;2.85;100.00;102460.69;5013023;28;20389;-72
2022/10/09 04:52:43;;;;;;;16.73;11.30;;;;;;;2.85;100.00;102452.97;5014189;28;20081;-72
2022/10/09 04:55:08;;;;;;;15.02;9.88;;;;;;;2.84;100.00;102461.50;5013385;28;20036;-72
2022/10/09 04:57:34;;;;;;;16.60;10.90;;;;;;;2.78;100.00;102448.44;5013454;28;20030;-73
2022/10/09 04:59:59;;;;;;;16.42;9.35;;;;;;;2.83;100.00;102459.75;5019665;28;20022;-72
2022/10/09 05:02:24;;;;;;;17.10;10.35;;;;;;;2.78;100.00;102440.69;5024819;28;20026;-72
2022/10/09 05:04:49;;;;;;;14.02;10.15;;;;;;;2.81;100.00;102448.50;5013507;28;20493;-72
2022/10/09 05:07:15;;;;;;;22.88;10.63;;;;;;;2.80;100.00;102439.03;5013374;28;20029;-72
2022/10/09 05:09:40;;;;;;;16.70;10.10;;;;;;;2.72;100.00;102433.63;5014730;28;20026;-72
2022/10/09 05:12:06;;;;;;;15.98;9.70;;;;;;;2.76;100.00;102440.63;5020487;28;20084;-72
2022/10/09 05:14:31;;;;;;;16.25;9.85;;;;;;;2.77;100.00;102438.94;5012210;28;20034;-72
2022/10/09 05:17:01;;;;;;;19.55;10.02;;;;;;;2.77;100.00;102439.81;5006126;28;20022;-72
2022/10/09 05:19:27;;;;;;;19.20;10.35;;;;;;;2.73;100.00;102424.22;5012714;28;20033;-72
2022/10/09 05:21:52;;;;;;;22.23;10.95;;;;;;;2.76;100.00;102421.72;5010758;28;20026;-72
2022/10/09 05:24:19;;;;;;;17.30;10.45;;;;;;;2.77;100.00;102432.06;5008471;28;20143;-72
2022/10/09 05:26:44;;;;;;;17.83;11.57;;;;;;;2.75;100.00;102436.31;5016441;28;20037;-72
2022/10/09 05:29:10;;;;;;;22.23;10.75;;;;;;;2.73;100.00;102432.81;5013827;28;20029;-72
2022/10/09 05:31:36;;;;;;;17.63;10.43;;;;;;;2.67;100.00;102421.41;5012465;28;20437;-72
2022/10/09 05:34:02;;;;;;;17.40;9.88;;;;;;;2.72;100.00;102433.63;5013392;28;20036;-72
2022/10/09 05:36:28;;;;;;;16.67;10.23;;;;;;;2.66;100.00;102422.25;5012645;28;20053;-72
2022/10/09 05:38:55;;;;;;;16.55;9.73;;;;;;;2.70;100.00;102429.25;5012971;28;20026;-72
2022/10/09 05:41:20;;;;;;;18.45;9.70;;;;;;;2.66;100.00;102414.53;5013196;28;20025;-72
2022/10/09 05:43:47;;;;;;;16.02;9.70;;;;;;;2.70;100.00;102426.66;5013517;28;20109;-72
2022/10/09 05:46:22;;;;;;;15.77;9.98;;;;;;;2.67;100.00;102424.88;5012641;28;20022;-73
2022/10/09 05:48:53;;;;;;;20.25;10.73;;;;;;;2.66;100.00;102432.56;5013398;28;20036;-73
2022/10/09 05:51:21;;;;;;;17.40;9.65;;;;;;;2.63;100.00;102430.75;5011647;28;20676;-72
2022/10/09 05:53:47;;;;;;;18.55;9.55;;;;;;;2.60;100.00;102417.75;5004955;28;20057;-72
2022/10/09 05:56:21;;;;;;;16.73;10.40;;;;;;;2.65;100.00;102429.09;5013174;28;20049;-72
2022/10/09 05:58:58;;;;;;;20.70;9.77;;;;;;;2.68;100.00;102426.63;5012602;28;20032;-72
2022/10/09 06:01:26;;;;;;;17.83;10.43;;;;;;;2.65;100.00;102420.47;5012425;28;20478;-73
2022/10/09 06:03:54;;;;;;;14.18;10.07;;;;;;;2.69;100.00;102424.94;5013101;28;20030;-72
2022/10/09 06:06:21;;;;;;;15.77;9.88;;;;;;;2.64;100.00;102423.88;5011962;28;20030;-72
2022/10/09 06:08:47;;;;;;;21.08;10.27;;;;;;;2.67;100.00;102429.13;5012290;28;20072;-72
2022/10/09 06:11:19;;;;;;;15.10;10.00;;;;;;;2.68;100.00;102430.88;5012946;28;20030;-72
2022/10/09 06:13:45;;;;;;;17.30;9.75;;;;;;;2.65;100.00;102417.91;5011763;28;20057;-72
2022/10/09 06:16:12;;;;;;;14.63;10.15;;;;;;;2.72;100.00;102427.63;5012756;28;20030;-72
2022/10/09 06:18:39;;;;;;;17.08;9.65;;;;;;;2.56;100.00;102403.91;5012155;28;20476;-72
2022/10/09 06:21:05;;;;;;;16.02;9.93;;;;;;;2.66;100.00;102414.53;5012005;28;20045;-72
2022/10/09 06:23:31;;;;;;;15.55;9.68;;;;;;;2.78;100.00;102427.81;5011959;28;20498;-72
2022/10/09 06:25:59;;;;;;;19.48;9.32;;;;;;;2.68;100.00;102410.28;5011901;28;20026;-72
2022/10/09 06:28:24;;;;;;;17.40;9.68;;;;;;;2.81;100.00;102422.75;5011144;28;20033;-72
2022/10/09 06:30:52;;;;;;;18.42;9.45;;;;;;;2.78;100.00;102423.53;5009480;28;20019;-72
2022/10/09 06:33:17;;;;;;;16.60;9.77;;;;;;;2.91;100.00;102435.13;5011954;28;20535;-72
2022/10/09 06:35:42;;;;;;;17.23;9.82;;;;;;;2.93;100.00;102438.63;5018431;28;20037;-72
2022/10/09 06:38:08;;;;;;;15.63;9.70;;;;;;;2.99;100.00;102437.97;5022944;28;20026;-72
2022/10/09 06:40:35;;;;;;;17.67;10.43;;;;;;;3.03;100.00;102442.38;5010396;28;20026;-72
2022/10/09 06:43:01;;;;;;;16.20;10.52;;;;;;;3.08;100.00;102438.25;5012699;28;20061;-72
2022/10/09 06:45:27;;;;;;;20.00;11.23;;;;;;;3.12;100.00;102436.66;5011001;28;20547;-72
2022/10/09 06:47:52;;;;;;;17.17;10.43;;;;;;;3.17;100.00;102430.84;5011571;28;20026;-72
2022/10/09 06:50:17;;;;;;;16.17;10.60;;;;;;;3.23;100.00;102433.59;5010739;28;20080;-72
2022/10/09 06:52:43;;;;;;;22.35;11.00;;;;;;;3.25;100.00;102425.91;5012028;28;20080;-72
2022/10/09 06:55:08;;;;;;;15.65;10.25;;;;;;;3.34;100.00;102433.94;5011245;28;20057;-72
2022/10/09 06:57:33;;;;;;;18.20;10.95;;;;;;;3.35;100.00;102427.09;5011899;28;20445;-73
2022/10/09 06:59:59;;;;;;;17.90;11.48;;;;;;;3.38;100.00;102412.59;5011285;28;20044;-73
2022/10/09 07:02:24;;;;;;;22.30;11.85;;;;;;;3.48;100.00;102419.78;5009849;28;20084;-72
2022/10/09 07:04:49;;;;;;;19.50;12.75;;;;;;;3.62;100.00;102421.91;5016503;28;20041;-72
2022/10/09 07:07:14;;;;;;;24.77;13.27;;;;;;;3.72;100.00;102421.34;5012340;28;20030;-72
2022/10/09 07:09:40;;;;;;;22.73;13.27;;;;;;;3.83;100.00;102434.59;5010193;28;20041;-72
2022/10/09 07:12:05;;;;;;;19.15;13.10;;;;;;;3.91;100.00;102426.22;5011021;28;20088;-72
2022/10/09 07:14:30;;;;;;;20.90;14.25;;;;;;;3.96;100.00;102416.06;5010156;28;20433;-72
2022/10/09 07:16:55;;;;;;;23.15;14.07;;;;;;;4.02;100.00;102415.31;5010913;28;20033;-72
2022/10/09 07:19:21;;;;;;;23.70;14.57;;;;;;;4.20;100.00;102429.63;5011157;28;20109;-72
2022/10/09 07:21:48;;;;;;;28.63;15.55;;;;;;;4.33;100.00;102425.69;5013085;28;20033;-72
2022/10/09 07:24:14;;;;;;;27.85;16.27;;;;;;;4.39;100.00;102417.25;5011843;28;20025;-72
2022/10/09 07:26:43;;;;;;;29.92;16.20;;;;;;;4.55;100.00;102428.88;5012266;28;20029;-72
2022/10/09 07:29:12;;;;;;;29.10;17.70;;;;;;;4.67;100.00;102431.75;5011881;28;20022;-72
2022/10/09 07:31:37;;;;;;;30.42;18.20;;;;;;;4.76;100.00;102428.53;5013757;28;20038;-72
2022/10/09 07:34:03;;;;;;;25.77;18.58;;;;;;;4.89;100.00;102426.31;5010811;28;20034;-72
2022/10/09 07:36:28;;;;;;;31.58;19.00;;;;;;;4.92;100.00;102412.59;5009864;28;20038;-72
2022/10/09 07:38:56;;;;;;;31.15;18.95;;;;;;;5.05;100.00;102419.81;5010537;28;20026;-73
2022/10/09 07:41:23;;;;;;;33.88;20.33;;;;;;;5.18;100.00;102420.97;5013865;28;20061;-72
2022/10/09 07:43:48;;;;;;;32.97;21.02;;;;;;;5.29;100.00;102426.41;5011643;28;20389;-72
2022/10/09 07:46:16;;;;;;;30.45;20.02;;;;;;;5.35;100.00;102417.06;5014536;28;20022;-72
2022/10/09 07:48:42;;;;;;;32.28;20.83;;;;;;;5.49;100.00;102408.75;5013933;28;20042;-72
2022/10/09 07:51:12;;;;;;;34.65;20.40;;;;;;;5.56;100.00;102414.13;5010274;28;20052;-72
2022/10/09 07:53:39;;;;;;;32.03;20.98;;;;;;;5.67;100.00;102411.75;5014507;28;20404;-72
2022/10/09 07:56:05;;;;;;;33.95;20.17;;;;;;;5.79;100.00;102422.38;5015413;28;20462;-72
2022/10/09 07:58:31;;;;;;;28.42;19.80;;;;;;;5.92;100.00;102425.22;5006462;28;20030;-72
2022/10/09 08:01:02;;;;;;;34.45;21.10;;;;;;;6.00;100.00;102415.94;5002331;28;20467;-72
2022/10/09 08:03:27;;;;;;;30.60;19.80;;;;;;;6.06;100.00;102422.09;5017879;28;20037;-72
2022/10/09 08:05:56;;;;;;;32.10;20.35;;;;;;;6.17;100.00;102413.69;5013942;28;20550;-72
2022/10/09 08:08:22;;;;;;;28.70;18.02;;;;;;;6.27;100.00;102415.59;5012665;28;20433;-72
2022/10/09 08:10:47;;;;;;;31.50;18.63;;;;;;;6.38;100.00;102413.25;5014567;28;20075;-72
2022/10/09 08:13:12;;;;;;;25.77;17.35;;;;;;;6.47;100.00;102413.38;5027585;28;20034;-72
2022/10/09 08:15:42;;;;;;;31.40;17.30;;;;;;;6.41;100.00;102398.63;5014904;28;20059;-72
2022/10/09 08:18:08;;;;;;;28.63;17.02;;;;;;;6.61;100.00;102406.75;5024556;28;20121;-72
2022/10/09 08:20:34;;;;;;;23.02;15.38;;;;;;;6.58;100.00;102380.78;5013798;28;20068;-72
2022/10/09 08:22:59;;;;;;;22.63;14.55;;;;;;;6.76;100.00;102394.03;5015307;28;20030;-72
2022/10/09 08:25:24;;;;;;;21.33;13.93;;;;;;;6.96;100.00;102396.09;5006350;28;20414;-72
2022/10/09 08:27:53;;;;;;;21.90;13.98;;;;;;;7.02;100.00;102393.59;5014549;28;20017;-72
2022/10/09 08:30:18;;;;;;;28.35;17.15;;;;;;;7.11;100.00;102385.09;5014839;28;20037;-72
2022/10/09 08:32:44;;;;;;;24.90;16.00;;;;;;;7.24;100.00;102400.00;5000904;28;20025;-72
2022/10/09 08:35:09;;;;;;;29.02;18.58;;;;;;;7.33;100.00;102389.78;5013720;28;20430;-72
2022/10/09 08:37:35;;;;;;;27.92;16.58;;;;;;;7.43;100.00;102383.00;5013401;28;20030;-73
2022/10/09 08:40:01;;;;;;;22.05;15.68;;;;;;;7.50;100.00;102379.63;5013985;28;20541;-73
2022/10/09 08:42:37;;;;;;;24.90;14.43;;;;;;;7.68;100.00;102376.38;5014180;28;20109;-73
2022/10/09 08:45:03;;;;;;;26.77;13.00;;;;;;;7.79;100.00;102371.34;5014581;28;20033;-73
2022/10/09 08:47:39;;;;;;;18.77;11.60;;;;;;;7.88;100.00;102376.63;5012884;28;20541;-74
2022/10/09 08:50:09;;;;;;;19.90;12.13;;;;;;;7.92;100.00;102368.94;5013278;28;20046;-73
2022/10/09 08:53:02;;;;;;;20.05;11.98;;;;;;;8.07;100.00;102367.34;5014023;28;20022;-73
2022/10/09 08:55:34;;;;;;;15.38;10.88;;;;;;;8.21;100.00;102369.25;5007748;28;20224;-72
2022/10/09 08:58:05;;;;;;;16.60;11.35;;;;;;;8.23;100.00;102351.06;5025667;28;20410;-74
2022/10/09 09:00:45;;;;;;;14.27;10.25;;;;;;;8.48;100.00;102370.41;5012276;28;20025;-72
2022/10/09 09:03:12;;;;;;;14.38;9.68;;;;;;;8.58;100.00;102359.25;5012328;28;20030;-73
2022/10/09 09:05:52;;;;;;;15.13;8.95;;;;;;;8.73;100.00;102362.81;4999994;28;20026;-72
2022/10/09 09:08:47;;;;;;;16.13;8.63;;;;;;;8.89;100.00;102355.19;5012204;28;20064;-73
2022/10/09 09:11:33;;;;;;;21.10;9.30;;;;;;;9.01;100.00;102348.31;5022924;28;20113;-73
2022/10/09 09:14:09;;;;;;;18.20;9.30;;;;;;;9.12;100.00;102337.13;5014185;28;20021;-73
2022/10/09 09:16:46;;;;;;;15.00;9.98;;;;;;;9.25;100.00;102345.00;5003187;28;20069;-73
2022/10/09 09:19:58;;;;;;;15.25;9.77;;;;;;;9.41;100.00;102346.81;5013681;28;20037;-73
2022/10/09 09:22:25;;;;;;;22.80;10.27;;;;;;;9.52;100.00;102337.34;5012657;28;20025;-73
2022/10/09 09:24:54;;;;;;;13.70;8.88;;;;;;;9.60;100.00;102335.63;5018732;28;20032;-73
2022/10/09 09:27:41;;;;;;;16.52;9.00;;;;;;;9.69;100.00;102333.94;5020097;28;20557;-73
2022/10/09 09:30:36;;;;;;;18.20;8.63;;;;;;;9.76;100.00;102330.50;5012204;28;20042;-73
2022/10/09 09:33:10;;;;;;;15.80;8.45;;;;;;;9.85;100.00;102326.19;5007052;28;20458;-72
2022/10/09 09:35:51;;;;;;;14.57;9.15;;;;;;;9.96;100.00;102322.75;5008621;28;20083;-73
2022/10/09 09:38:17;;;;;;;13.15;8.38;;;;;;;10.06;100.00;102309.75;5013117;28;20480;-73
2022/10/09 09:40:43;;;;;;;16.63;8.70;;;;;;;10.14;100.00;102309.78;5013293;28;20037;-73
2022/10/09 09:43:27;;;;;;;14.20;8.63;;;;;;;10.15;100.00;102287.19;5012731;28;20026;-73
2022/10/09 09:45:54;;;;;;;14.40;8.15;;;;;;;10.31;100.00;102299.41;5013408;28;20026;-71
2022/10/09 09:48:32;;;;;;;18.90;8.32;;;;;;;10.44;99.99;102295.06;5012921;28;20032;-75
2022/10/09 09:50:59;;;;;;;12.88;7.88;;;;;;;10.50;98.86;102282.91;5012095;28;20060;-73
2022/10/09 09:53:32;;;;;;;12.20;7.47;;;;;;;10.69;97.32;102290.69;5015033;28;20033;-73
2022/10/09 09:55:58;;;;;;;10.48;7.40;;;;;;;10.78;97.31;102291.56;5003370;28;20091;-73
2022/10/09 09:58:32;;;;;;;15.25;7.43;;;;;;;10.87;95.37;102288.06;5011190;28;20030;-74
2022/10/09 10:01:00;;;;;;;10.07;7.13;;;;;;;10.87;94.52;102271.56;5012804;28;20041;-73
2022/10/09 10:03:26;;;;;;;10.02;7.35;;;;;;;10.97;93.56;102266.31;5012232;28;20034;-73
2022/10/09 10:05:52;;;;;;;12.70;6.32;;;;;;;11.05;91.22;102273.25;5002844;28;20431;-73
2022/10/09 10:08:26;;;;;;;14.07;6.43;;;;;;;11.15;89.24;102280.16;5011468;28;20028;-73
2022/10/09 10:10:55;;;;;;;11.18;5.47;;;;;;;11.27;88.63;102277.53;5016105;28;20044;-72
2022/10/09 10:13:27;;;;;;;15.27;6.00;;;;;;;11.44;89.04;102273.13;5012168;28;20026;-72
2022/10/09 10:15:55;;;;;;;9.43;6.60;;;;;;;11.48;88.33;102259.16;5012953;28;20025;-73
2022/10/09 10:18:23;;;;;;;11.95;6.63;;;;;;;11.55;90.76;102246.94;5014630;28;20061;-73
2022/10/09 10:20:53;;;;;;;9.30;5.75;;;;;;;11.64;87.31;102249.53;5011246;28;20034;-72
2022/10/09 10:23:50;;;;;;;11.18;5.93;;;;;;;11.70;89.21;102257.28;5010974;28;20022;-74
2022/10/09 10:26:38;;;;;;;11.15;5.82;;;;;;;11.86;87.93;102257.25;4998141;28;20045;-72
2022/10/09 10:29:34;;;;;;;11.70;6.18;;;;;;;11.98;88.00;102264.16;5005994;28;20164;-73
2022/10/09 10:32:15;;;;;;;16.52;6.43;;;;;;;12.05;86.67;102252.78;5006735;28;20064;-73
2022/10/09 10:34:50;;;;;;;8.15;4.65;;;;;;;12.13;84.12;102238.78;4999551;28;20041;-73
2022/10/09 10:37:28;;;;;;;9.60;4.75;;;;;;;12.23;84.21;102236.97;5012713;28;20105;-73
2022/10/09 10:40:12;;;;;;;9.05;4.65;;;;;;;12.41;83.93;102238.53;5011875;28;20450;-73
2022/10/09 10:42:54;;;;;;;8.63;4.32;;;;;;;12.64;85.51;102226.09;5012194;28;20225;-73
2022/10/09 10:45:28;;;;;;;8.25;4.68;;;;;;;12.86;78.64;102224.13;5012301;28;20136;-73
2022/10/09 10:47:57;;;;;;;11.85;4.70;;;;;;;13.00;76.94;102217.88;5012038;28;20156;-73
2022/10/09 10:50:29;;;;;;;9.70;4.55;;;;;;;13.06;75.52;102217.81;5011695;28;20050;-73
2022/10/09 10:53:05;;;;;;;14.43;5.25;;;;;;;13.17;76.33;102225.53;5012216;28;20032;-72
2022/10/09 10:55:57;;;;;;;11.73;5.55;;;;;;;13.33;77.79;102220.09;5011197;28;20025;-73
2022/10/09 10:58:24;;;;;;;10.73;4.45;;;;;;;13.55;76.75;102206.72;4999112;28;20030;-73
2022/10/09 11:01:25;;;;;;;9.27;4.13;;;;;;;13.74;76.85;102210.81;5011639;28;20025;-73
2022/10/09 11:04:09;;;;;;;10.48;4.50;;;;;;;13.89;75.15;102201.84;5012398;28;20355;-73
2022/10/09 11:06:42;;;;;;;10.63;5.18;;;;;;;14.07;75.07;102190.22;5011623;28;20072;-73
2022/10/09 11:09:21;;;;;;;9.05;4.40;;;;;;;14.14;72.64;102189.22;5011637;28;20041;-73
2022/10/09 11:11:50;;;;;;;6.75;4.20;;;;;;;14.24;72.66;102180.28;5011970;28;20048;-73
2022/10/09 11:14:21;;;;;;;6.75;4.30;;;;;;;14.37;74.42;102191.44;5012782;28;20038;-73
2022/10/09 11:16:59;;;;;;;8.90;4.55;;;;;;;14.45;74.04;102178.16;5011334;28;20048;-73
2022/10/09 11:19:58;;;;;;;7.68;4.57;;;;;;;14.70;73.29;102184.72;5010973;28;20105;-73
2022/10/09 11:22:35;;;;;;;9.02;4.72;;;;;;;14.89;73.78;102179.13;4999959;28;20113;-73
2022/10/09 11:25:18;;;;;;;7.45;4.43;;;;;;;14.96;71.73;102167.59;5011861;28;20061;-73